Portada
METAR-TAF:

METAR-TAF

Aeroports :

Makkovik, Terranova i Labrador, Canadà

latitud: 55-05N, longitud: 059-11W, altitud: 71 m

Observació

L'informe es va fer fa 16 minuts, a les 20:00 UTC
Vent 3 kt amb direcció variable
Temperatura 6°C
Humitat 93%
Pressió 1008 hPa
Visibilitat: 24.1 km
Núvols disperses a una alçada de 500 ft
Cel cobert a una alçada de 1500 ft

METAR: CYFT 152000Z VRB03KT 15SM SCT005 OVC015 06/05 A2976 RMK ST4ST4 LAST STFD OBS/NEXT 160900 Z SLP083

Hora: 17:16 (20:16 UTC)


TAF: manca

Observacions i pronòstics meteorològics de més de 4000 aeroports (METAR i TAF).

Les estacions disponibles són els punts grocs i vermells al mapa.

Posi el ratolí al punt desitjat per veure el nom de l'estació.

Feu clic per veure les observacions i els pronòstics meteorològics.

Per canviar el mapa: feu clic els botons verds amb una creu de color negre per apropar; al botó verd amb un guió per allunyar la imatge; o en les fletxes verdes per a mapes adjacents.


METAR-TAF: